createdAt,value
2022-12-18T00:01:36.486Z,-2.93
2022-12-18T00:04:07.031Z,-2.93
2022-12-18T00:06:34.486Z,-2.92
2022-12-18T00:09:02.528Z,-2.84
2022-12-18T00:11:31.206Z,-2.80
2022-12-18T00:13:59.823Z,-2.79
2022-12-18T00:16:28.609Z,-2.74
2022-12-18T00:19:00.999Z,-2.64
2022-12-18T00:21:29.928Z,-2.54
2022-12-18T00:23:57.016Z,-2.51
2022-12-18T00:26:26.164Z,-2.48
2022-12-18T00:28:53.327Z,-2.57
2022-12-18T00:31:22.537Z,-2.50
2022-12-18T00:33:50.011Z,-2.46
2022-12-18T00:36:22.592Z,-2.47
2022-12-18T00:38:49.327Z,-2.38
2022-12-18T00:41:39.606Z,-2.37
2022-12-18T00:44:08.146Z,-2.40
2022-12-18T00:46:34.833Z,-2.46
2022-12-18T00:49:01.503Z,-2.60
2022-12-18T00:51:28.214Z,-2.69
2022-12-18T00:53:55.074Z,-2.79
2022-12-18T00:56:24.405Z,-2.78
2022-12-18T00:58:51.406Z,-2.79
2022-12-18T01:01:18.517Z,-2.89
2022-12-18T01:03:46.272Z,-3.00
2022-12-18T01:06:14.776Z,-3.20
2022-12-18T01:08:41.425Z,-3.19
2022-12-18T01:11:09.890Z,-3.18
2022-12-18T01:13:40.879Z,-3.11
2022-12-18T01:16:08.255Z,-3.16
2022-12-18T01:18:34.994Z,-3.11
2022-12-18T01:21:01.643Z,-3.03
2022-12-18T01:23:28.249Z,-3.05
2022-12-18T01:25:54.839Z,-3.10
2022-12-18T01:28:21.579Z,-3.01
2022-12-18T01:30:50.553Z,-2.94
2022-12-18T01:33:17.147Z,-2.87
2022-12-18T01:35:44.087Z,-2.84
2022-12-18T01:38:10.740Z,-2.81
2022-12-18T01:40:37.826Z,-2.85
2022-12-18T01:43:04.528Z,-2.89
2022-12-18T01:45:32.909Z,-2.82
2022-12-18T01:48:07.660Z,-2.78
2022-12-18T01:50:41.229Z,-2.66
2022-12-18T01:53:23.628Z,-2.64
2022-12-18T01:55:56.112Z,-2.70
2022-12-18T01:58:36.701Z,-2.66
2022-12-18T02:01:03.571Z,-2.58
2022-12-18T02:03:30.204Z,-2.74
2022-12-18T02:06:20.041Z,-2.67
2022-12-18T02:09:10.347Z,-2.83
2022-12-18T02:12:00.677Z,-2.89
2022-12-18T02:15:09.563Z,-2.93
2022-12-18T02:18:06.758Z,-2.98
2022-12-18T02:20:39.713Z,-2.96
2022-12-18T02:23:33.162Z,-3.03
2022-12-18T02:26:30.326Z,-3.08
2022-12-18T02:29:40.310Z,-3.10
2022-12-18T02:32:14.251Z,-3.09
2022-12-18T02:34:41.635Z,-3.21
2022-12-18T02:37:16.866Z,-3.24
2022-12-18T02:39:47.158Z,-3.27
2022-12-18T02:42:14.170Z,-3.38
2022-12-18T02:44:48.860Z,-3.49
2022-12-18T02:47:18.915Z,-3.51
2022-12-18T02:50:06.214Z,-3.45
2022-12-18T02:52:52.414Z,-3.56
2022-12-18T02:56:10.301Z,-3.74
2022-12-18T02:58:45.923Z,-3.81
2022-12-18T03:01:18.799Z,-4.00
2022-12-18T03:04:01.407Z,-4.39
2022-12-18T03:06:34.410Z,-4.42
2022-12-18T03:09:07.083Z,-4.60
2022-12-18T03:11:56.782Z,-4.97
2022-12-18T03:14:25.599Z,-4.95
2022-12-18T03:16:55.818Z,-5.14
2022-12-18T03:19:25.249Z,-5.34
2022-12-18T03:21:56.806Z,-5.41
2022-12-18T03:24:25.477Z,-5.24
2022-12-18T03:26:58.322Z,-5.33
2022-12-18T03:29:37.267Z,-5.49
2022-12-18T03:32:10.659Z,-5.61
2022-12-18T03:34:39.789Z,-5.47
2022-12-18T03:37:07.323Z,-5.57
2022-12-18T03:39:35.789Z,-5.51
2022-12-18T03:42:18.433Z,-5.63
2022-12-18T03:45:12.093Z,-5.32
2022-12-18T03:48:17.496Z,-5.35
2022-12-18T03:50:50.837Z,-5.61
2022-12-18T03:53:48.707Z,-5.63
2022-12-18T03:56:17.707Z,-5.76
2022-12-18T03:58:45.440Z,-5.86
2022-12-18T04:01:16.161Z,-5.93
2022-12-18T04:03:45.227Z,-6.21
2022-12-18T04:06:12.852Z,-6.22
2022-12-18T04:08:40.992Z,-6.20
2022-12-18T04:11:07.903Z,-6.05
2022-12-18T04:13:37.872Z,-6.14
2022-12-18T04:16:05.477Z,-6.25
2022-12-18T04:18:32.165Z,-6.45
2022-12-18T04:20:58.906Z,-6.42
2022-12-18T04:23:25.567Z,-6.41
2022-12-18T04:25:52.234Z,-6.57
2022-12-18T04:28:18.947Z,-6.41
2022-12-18T04:30:48.913Z,-6.34
2022-12-18T04:33:19.101Z,-6.52
2022-12-18T04:35:46.118Z,-6.90
2022-12-18T04:38:12.859Z,-6.93
2022-12-18T04:40:39.824Z,-6.63
2022-12-18T04:43:08.747Z,-6.90
2022-12-18T04:45:35.482Z,-6.83
2022-12-18T04:48:03.593Z,-7.00
2022-12-18T04:50:31.237Z,-7.02
2022-12-18T04:52:58.542Z,-7.07
2022-12-18T04:55:26.880Z,-6.90
2022-12-18T04:57:53.799Z,-7.15
2022-12-18T05:00:21.163Z,-7.09
2022-12-18T05:02:48.059Z,-6.98
2022-12-18T05:05:14.922Z,-6.86
2022-12-18T05:07:42.034Z,-6.80
2022-12-18T05:10:09.463Z,-6.91
2022-12-18T05:12:57.440Z,-7.14
2022-12-18T05:15:24.165Z,-7.30
2022-12-18T05:17:50.825Z,-7.20
2022-12-18T05:20:19.032Z,-7.23
2022-12-18T05:22:46.309Z,-6.90
2022-12-18T05:25:13.048Z,-7.39
2022-12-18T05:27:39.742Z,-7.22
2022-12-18T05:30:07.031Z,-7.40
2022-12-18T05:32:33.809Z,-7.40
2022-12-18T05:35:00.530Z,-7.45
2022-12-18T05:37:27.267Z,-7.04
2022-12-18T05:39:54.025Z,-7.19
2022-12-18T05:42:20.711Z,-7.32
2022-12-18T05:44:47.372Z,-7.56
2022-12-18T05:47:14.211Z,-7.29
2022-12-18T05:49:40.873Z,-7.42
2022-12-18T05:52:07.605Z,-7.51
2022-12-18T05:54:34.548Z,-7.37
2022-12-18T05:57:01.194Z,-7.45
2022-12-18T05:59:27.871Z,-7.41
2022-12-18T06:01:54.651Z,-7.41
2022-12-18T06:04:21.403Z,-7.58
2022-12-18T06:06:48.054Z,-7.82
2022-12-18T06:09:14.782Z,-7.71
2022-12-18T06:11:41.539Z,-7.73
2022-12-18T06:14:08.474Z,-7.86
2022-12-18T06:16:35.145Z,-7.92
2022-12-18T06:19:04.718Z,-7.59
2022-12-18T06:21:32.432Z,-7.45
2022-12-18T06:24:01.019Z,-7.63
2022-12-18T06:26:28.479Z,-7.66
2022-12-18T06:28:55.377Z,-7.75
2022-12-18T06:31:22.240Z,-7.71
2022-12-18T06:33:48.959Z,-7.70
2022-12-18T06:36:15.806Z,-7.62
2022-12-18T06:38:44.255Z,-7.58
2022-12-18T06:41:15.670Z,-7.71
2022-12-18T06:43:43.341Z,-7.69
2022-12-18T06:46:11.171Z,-7.52
2022-12-18T06:48:38.123Z,-7.46
2022-12-18T06:51:05.124Z,-7.40
2022-12-18T06:53:35.174Z,-7.37
2022-12-18T06:56:10.365Z,-7.40
2022-12-18T06:58:38.126Z,-7.39
2022-12-18T07:01:07.272Z,-7.20
2022-12-18T07:03:36.524Z,-7.11
2022-12-18T07:06:04.644Z,-7.11
2022-12-18T07:08:32.679Z,-7.05
2022-12-18T07:11:20.354Z,-7.07
2022-12-18T07:13:47.501Z,-6.91
2022-12-18T07:16:25.349Z,-6.81
2022-12-18T07:18:55.831Z,-6.62
2022-12-18T07:21:26.938Z,-6.61
2022-12-18T07:23:53.763Z,-6.55
2022-12-18T07:26:22.468Z,-6.57
2022-12-18T07:28:49.875Z,-6.45
2022-12-18T07:31:22.115Z,-6.24
2022-12-18T07:33:52.685Z,-6.21
2022-12-18T07:36:29.955Z,-6.21
2022-12-18T07:38:59.412Z,-6.15
2022-12-18T07:41:27.345Z,-5.85
2022-12-18T07:43:54.549Z,-5.83
2022-12-18T07:46:26.127Z,-5.75
2022-12-18T07:49:09.075Z,-5.70
2022-12-18T07:51:36.292Z,-5.63
2022-12-18T07:54:03.529Z,-5.45
2022-12-18T07:56:53.662Z,-5.33
2022-12-18T07:59:20.287Z,-5.19
2022-12-18T08:01:47.031Z,-5.10
2022-12-18T08:04:13.773Z,-4.90
2022-12-18T08:06:43.671Z,-4.89
2022-12-18T08:09:16.610Z,-4.66
2022-12-18T08:11:43.616Z,-4.67
2022-12-18T08:14:10.886Z,-4.62
2022-12-18T08:16:37.609Z,-4.40
2022-12-18T08:19:04.611Z,-4.25
2022-12-18T08:21:32.441Z,-4.04
2022-12-18T08:24:01.599Z,-3.97
2022-12-18T08:26:30.243Z,-3.92
2022-12-18T08:28:58.663Z,-3.79
2022-12-18T08:31:26.911Z,-3.82
2022-12-18T08:33:54.933Z,-3.65
2022-12-18T08:36:25.440Z,-3.53
2022-12-18T08:38:53.221Z,-3.33
2022-12-18T08:41:19.825Z,-3.33
2022-12-18T08:44:04.892Z,-3.22
2022-12-18T08:46:49.511Z,-3.21
2022-12-18T08:49:16.170Z,-3.09
2022-12-18T08:51:42.769Z,-3.01
2022-12-18T08:54:17.330Z,-2.77
2022-12-18T08:56:46.233Z,-2.66
2022-12-18T08:59:19.138Z,-2.51
2022-12-18T09:01:47.568Z,-2.24
2022-12-18T09:04:14.979Z,-1.30
2022-12-18T09:06:41.623Z,-0.05
2022-12-18T09:09:08.413Z,1.58
2022-12-18T09:11:35.004Z,3.29
2022-12-18T09:14:02.600Z,4.01
2022-12-18T09:16:32.361Z,4.75
2022-12-18T09:19:02.761Z,5.23
2022-12-18T09:21:34.277Z,5.55
2022-12-18T09:24:03.887Z,6.71
2022-12-18T09:26:31.619Z,7.44
2022-12-18T09:28:58.339Z,8.03
2022-12-18T09:31:25.707Z,8.57
2022-12-18T09:33:52.380Z,7.76
2022-12-18T09:36:20.473Z,7.95
2022-12-18T09:38:48.395Z,7.65
2022-12-18T09:41:39.627Z,6.35
2022-12-18T09:44:45.645Z,7.12
2022-12-18T09:47:19.021Z,6.38
2022-12-18T09:49:48.387Z,7.31
2022-12-18T09:52:28.040Z,9.94
2022-12-18T09:55:01.395Z,9.41
2022-12-18T09:57:28.047Z,10.62
2022-12-18T10:00:00.099Z,10.47
2022-12-18T10:02:28.008Z,11.65
2022-12-18T10:05:04.405Z,11.19
2022-12-18T10:08:11.421Z,12.04
2022-12-18T10:10:58.545Z,11.60
2022-12-18T10:13:40.487Z,10.57
2022-12-18T10:16:33.357Z,11.61
2022-12-18T10:18:59.926Z,11.41
2022-12-18T10:21:35.082Z,10.16
2022-12-18T10:24:12.960Z,11.86
2022-12-18T10:26:40.084Z,11.04
2022-12-18T10:29:13.270Z,11.99
2022-12-18T10:31:40.077Z,12.52
2022-12-18T10:34:15.798Z,11.99
2022-12-18T10:36:43.253Z,12.85
2022-12-18T10:39:23.359Z,11.08
2022-12-18T10:41:51.314Z,12.93
2022-12-18T10:44:23.739Z,12.60
2022-12-18T10:47:10.229Z,12.52
2022-12-18T10:49:48.226Z,12.04
2022-12-18T10:52:23.072Z,12.10
2022-12-18T10:54:51.566Z,13.17
2022-12-18T10:57:32.817Z,13.23
2022-12-18T11:00:02.393Z,12.29
2022-12-18T11:02:36.516Z,12.95
2022-12-18T11:05:06.266Z,11.97
2022-12-18T11:07:51.117Z,13.35
2022-12-18T11:10:19.791Z,13.62
2022-12-18T11:12:46.961Z,11.80
2022-12-18T11:15:23.783Z,10.99
2022-12-18T11:17:52.054Z,12.44
2022-12-18T11:20:33.846Z,12.44
2022-12-18T11:23:13.938Z,12.24
2022-12-18T11:25:51.552Z,10.85
2022-12-18T11:28:42.089Z,10.84
2022-12-18T11:31:25.188Z,10.48
2022-12-18T11:34:27.652Z,9.42
2022-12-18T11:36:48.427Z,10.85
2022-12-18T11:39:22.439Z,11.55
2022-12-18T11:42:12.914Z,11.79
2022-12-18T11:44:44.053Z,10.94
2022-12-18T11:47:33.519Z,10.75
2022-12-18T11:50:02.605Z,11.29
2022-12-18T11:52:40.080Z,10.16
2022-12-18T11:55:22.598Z,9.90
2022-12-18T11:58:14.443Z,10.60
2022-12-18T12:01:13.146Z,11.40
2022-12-18T12:03:51.865Z,10.14
2022-12-18T12:06:37.362Z,8.65
2022-12-18T12:09:15.732Z,8.34
2022-12-18T12:11:54.122Z,8.13
2022-12-18T12:14:32.146Z,9.89
2022-12-18T12:17:19.348Z,9.85
2022-12-18T12:19:51.077Z,8.66
2022-12-18T12:22:43.699Z,6.24
2022-12-18T12:25:30.254Z,4.99
2022-12-18T12:28:44.256Z,4.02
2022-12-18T12:31:35.323Z,3.38
2022-12-18T12:34:08.271Z,2.99
2022-12-18T12:36:52.930Z,2.75
2022-12-18T12:39:24.224Z,2.33
2022-12-18T12:42:09.510Z,2.10
2022-12-18T12:44:44.080Z,1.93
2022-12-18T12:47:28.612Z,1.69
2022-12-18T12:49:59.215Z,1.54
2022-12-18T12:52:34.590Z,1.40
2022-12-18T12:55:14.711Z,1.23
2022-12-18T12:57:49.013Z,1.25
2022-12-18T13:00:20.591Z,1.14
2022-12-18T13:03:12.795Z,1.00
2022-12-18T13:05:50.596Z,1.05
2022-12-18T13:08:56.258Z,1.04
2022-12-18T13:11:59.741Z,0.97
2022-12-18T13:14:42.682Z,0.80
2022-12-18T13:17:22.750Z,0.77
2022-12-18T13:19:51.725Z,0.74
2022-12-18T13:22:34.380Z,0.75
2022-12-18T13:25:01.363Z,0.66
2022-12-18T13:28:14.487Z,0.64
2022-12-18T13:30:43.946Z,0.64
2022-12-18T13:33:19.445Z,0.55
2022-12-18T13:35:49.107Z,0.42
2022-12-18T13:39:34.507Z,0.39
2022-12-18T13:42:08.543Z,0.36
2022-12-18T13:44:40.849Z,0.37
2022-12-18T13:47:26.511Z,0.22
2022-12-18T13:49:53.963Z,0.11
2022-12-18T13:52:24.048Z,-0.07
2022-12-18T13:55:03.286Z,-0.10
2022-12-18T13:57:41.814Z,-0.42
2022-12-18T14:00:25.806Z,-0.27
2022-12-18T14:02:53.412Z,-0.42
2022-12-18T14:05:30.967Z,-0.49
2022-12-18T14:08:07.113Z,-0.59
2022-12-18T14:10:49.234Z,-0.68
2022-12-18T14:13:22.595Z,-0.74
2022-12-18T14:15:50.108Z,-0.85
2022-12-18T14:18:24.693Z,-0.98
2022-12-18T14:20:54.114Z,-1.24
2022-12-18T14:23:41.496Z,-1.52
2022-12-18T14:26:28.962Z,-1.49
2022-12-18T14:29:02.135Z,-1.76
2022-12-18T14:31:31.425Z,-2.06
2022-12-18T14:33:58.261Z,-2.41
2022-12-18T14:36:27.423Z,-2.42
2022-12-18T14:38:58.803Z,-2.55
2022-12-18T14:41:26.714Z,-2.64
2022-12-18T14:43:54.969Z,-2.87
2022-12-18T14:46:33.956Z,-3.11
2022-12-18T14:49:03.835Z,-3.15
2022-12-18T14:51:34.125Z,-3.33
2022-12-18T14:54:09.179Z,-3.55
2022-12-18T14:56:43.399Z,-3.46
2022-12-18T14:59:25.040Z,-3.84
2022-12-18T15:01:54.920Z,-3.90
2022-12-18T15:04:25.682Z,-4.02
2022-12-18T15:07:03.720Z,-4.01
2022-12-18T15:09:30.352Z,-4.07
2022-12-18T15:12:01.681Z,-4.19
2022-12-18T15:14:33.609Z,-4.35
2022-12-18T15:17:02.876Z,-4.41
2022-12-18T15:19:50.963Z,-4.41
2022-12-18T15:22:34.642Z,-4.46
2022-12-18T15:25:01.866Z,-4.70
2022-12-18T15:27:40.311Z,-4.79
2022-12-18T15:30:12.914Z,-4.80
2022-12-18T15:32:43.813Z,-4.85
2022-12-18T15:35:25.275Z,-4.83
2022-12-18T15:37:53.325Z,-4.94
2022-12-18T15:40:23.829Z,-4.86
2022-12-18T15:43:13.701Z,-4.86
2022-12-18T15:45:40.470Z,-4.78
2022-12-18T15:48:22.166Z,-4.95
2022-12-18T15:50:51.055Z,-4.95
2022-12-18T15:53:18.623Z,-4.90
2022-12-18T15:56:04.204Z,-4.97
2022-12-18T15:58:31.501Z,-4.94
2022-12-18T16:01:00.568Z,-4.98
2022-12-18T16:03:27.378Z,-5.00
2022-12-18T16:05:56.876Z,-5.18
2022-12-18T16:08:24.972Z,-5.34
2022-12-18T16:10:51.701Z,-5.50
2022-12-18T16:13:21.174Z,-5.36
2022-12-18T16:15:48.189Z,-5.63
2022-12-18T16:18:14.821Z,-5.64
2022-12-18T16:20:41.701Z,-5.64
2022-12-18T16:23:08.412Z,-5.49
2022-12-18T16:25:35.068Z,-5.66
2022-12-18T16:28:03.968Z,-5.62
2022-12-18T16:30:34.307Z,-5.53
2022-12-18T16:33:05.127Z,-5.66
2022-12-18T16:35:31.833Z,-5.70
2022-12-18T16:37:58.421Z,-5.91
2022-12-18T16:40:25.672Z,-5.92
2022-12-18T16:42:52.254Z,-5.91
2022-12-18T16:45:19.533Z,-5.98
2022-12-18T16:47:46.323Z,-5.91
2022-12-18T16:50:13.079Z,-5.59
2022-12-18T16:52:40.131Z,-5.95
2022-12-18T16:55:10.114Z,-6.11
2022-12-18T16:57:38.924Z,-6.22
2022-12-18T17:00:06.374Z,-6.26
2022-12-18T17:02:33.610Z,-6.41
2022-12-18T17:05:00.642Z,-6.17
2022-12-18T17:07:28.377Z,-6.06
2022-12-18T17:09:55.684Z,-6.29
2022-12-18T17:12:22.442Z,-6.29
2022-12-18T17:14:49.245Z,-6.26
2022-12-18T17:17:23.905Z,-6.23
2022-12-18T17:19:52.436Z,-6.15
2022-12-18T17:22:20.271Z,-6.20
2022-12-18T17:24:47.354Z,-6.22
2022-12-18T17:27:14.454Z,-6.39
2022-12-18T17:29:47.389Z,-6.15
2022-12-18T17:32:16.242Z,-6.17
2022-12-18T17:34:42.837Z,-6.27
2022-12-18T17:37:09.660Z,-6.37
2022-12-18T17:39:39.362Z,-6.52
2022-12-18T17:42:06.794Z,-6.50
2022-12-18T17:44:34.470Z,-6.34
2022-12-18T17:47:01.418Z,-6.44
2022-12-18T17:49:28.433Z,-6.66
2022-12-18T17:51:55.027Z,-6.68
2022-12-18T17:54:21.580Z,-6.52
2022-12-18T17:56:48.164Z,-6.31
2022-12-18T17:59:14.788Z,-6.26
2022-12-18T18:01:44.749Z,-6.38
2022-12-18T18:04:13.624Z,-6.12
2022-12-18T18:06:40.649Z,-6.57
2022-12-18T18:09:08.218Z,-6.61
2022-12-18T18:12:01.595Z,-6.47
2022-12-18T18:14:31.020Z,-6.47
2022-12-18T18:17:00.766Z,-6.66
2022-12-18T18:19:32.878Z,-6.28
2022-12-18T18:22:30.944Z,-6.49
2022-12-18T18:24:48.654Z,-6.33
2022-12-18T18:27:15.406Z,-6.51
2022-12-18T18:29:42.028Z,-6.37
2022-12-18T18:32:08.654Z,-6.46
2022-12-18T18:34:35.408Z,-6.71
2022-12-18T18:37:02.817Z,-6.72
2022-12-18T18:39:31.872Z,-6.73
2022-12-18T18:41:59.383Z,-6.79
2022-12-18T18:44:26.535Z,-6.72
2022-12-18T18:46:57.678Z,-6.69
2022-12-18T18:49:27.550Z,-6.65
2022-12-18T18:51:55.504Z,-6.64
2022-12-18T18:54:24.289Z,-6.80
2022-12-18T18:59:38.153Z,-6.93
2022-12-18T19:02:05.163Z,-6.93
2022-12-18T19:04:33.601Z,-6.98
2022-12-18T19:07:00.402Z,-6.95
2022-12-18T19:09:27.747Z,-7.11
2022-12-18T19:12:14.404Z,-7.01
2022-12-18T19:14:41.185Z,-7.05
2022-12-18T19:17:08.131Z,-7.04
2022-12-18T19:19:36.694Z,-7.21
2022-12-18T19:22:03.566Z,-7.26
2022-12-18T19:24:30.218Z,-7.25
2022-12-18T19:26:58.127Z,-7.24
2022-12-18T19:29:25.070Z,-7.02
2022-12-18T19:31:51.897Z,-7.15
2022-12-18T19:34:18.535Z,-7.01
2022-12-18T19:36:45.124Z,-7.26
2022-12-18T19:39:16.577Z,-7.07
2022-12-18T19:41:45.877Z,-7.02
2022-12-18T19:44:14.756Z,-7.26
2022-12-18T19:46:42.907Z,-7.37
2022-12-18T19:49:10.876Z,-7.40
2022-12-18T19:51:38.365Z,-7.25
2022-12-18T19:54:05.536Z,-7.28
2022-12-18T19:56:34.611Z,-7.12
2022-12-18T19:59:02.339Z,-7.19
2022-12-18T20:01:30.537Z,-6.84
2022-12-18T20:03:58.879Z,-6.81
2022-12-18T20:06:28.088Z,-6.66
2022-12-18T20:09:00.475Z,-6.72
2022-12-18T20:11:31.594Z,-7.01
2022-12-18T20:13:58.578Z,-6.81
2022-12-18T20:16:25.267Z,-6.53
2022-12-18T20:20:45.824Z,-6.40
2022-12-18T20:21:39.053Z,-6.36
2022-12-18T20:24:08.695Z,-6.44
2022-12-18T20:26:35.496Z,-6.57
2022-12-18T20:29:02.063Z,-6.59
2022-12-18T20:31:28.777Z,-6.58
2022-12-18T20:34:01.587Z,-6.49
2022-12-18T20:36:30.617Z,-6.59
2022-12-18T20:38:59.127Z,-6.74
2022-12-18T20:41:31.673Z,-6.97
2022-12-18T20:44:04.723Z,-7.13
2022-12-18T20:46:31.340Z,-6.99
2022-12-18T20:48:57.933Z,-7.03
2022-12-18T20:51:24.734Z,-6.84
2022-12-18T20:53:52.685Z,-7.01
2022-12-18T20:56:22.306Z,-7.00
2022-12-18T20:58:53.611Z,-6.88
2022-12-18T21:01:23.606Z,-7.06
2022-12-18T21:03:51.095Z,-7.02
2022-12-18T21:06:20.691Z,-7.02
2022-12-18T21:08:47.918Z,-7.12
2022-12-18T21:11:39.025Z,-6.88
2022-12-18T21:14:17.977Z,-7.00
2022-12-18T21:16:45.327Z,-6.97
2022-12-18T21:19:13.904Z,-6.39
2022-12-18T21:21:41.747Z,-6.25
2022-12-18T21:24:09.851Z,-6.11
2022-12-18T21:26:41.856Z,-5.81
2022-12-18T21:29:17.532Z,-5.80
2022-12-18T21:31:45.431Z,-5.86
2022-12-18T21:34:20.938Z,-5.76
2022-12-18T21:36:48.322Z,-5.68
2022-12-18T21:39:15.421Z,-5.69
2022-12-18T21:42:01.046Z,-5.72
2022-12-18T21:44:27.859Z,-5.59
2022-12-18T21:46:58.332Z,-5.42
2022-12-18T21:49:30.230Z,-5.40
2022-12-18T21:51:58.201Z,-5.23
2022-12-18T21:54:26.504Z,-5.18
2022-12-18T21:56:57.143Z,-5.19
2022-12-18T21:59:38.467Z,-5.08
2022-12-18T22:02:12.529Z,-5.09
2022-12-18T22:04:39.722Z,-4.99
2022-12-18T22:07:06.828Z,-4.95
2022-12-18T22:09:34.189Z,-4.94
2022-12-18T22:12:00.872Z,-4.95
2022-12-18T22:14:27.905Z,-4.93
2022-12-18T22:16:57.281Z,-5.11
2022-12-18T22:19:27.234Z,-5.30
2022-12-18T22:21:54.436Z,-5.28
2022-12-18T22:24:26.466Z,-5.31
2022-12-18T22:26:57.294Z,-5.32
2022-12-18T22:29:47.548Z,-5.25
2022-12-18T22:32:16.990Z,-5.32
2022-12-18T22:34:55.536Z,-5.44
2022-12-18T22:37:22.571Z,-5.48
2022-12-18T22:39:49.105Z,-5.37
2022-12-18T22:42:15.684Z,-5.42
2022-12-18T22:44:42.238Z,-5.39
2022-12-18T22:47:10.188Z,-5.22
2022-12-18T22:49:37.566Z,-5.11
2022-12-18T22:52:07.249Z,-5.05
2022-12-18T22:54:33.920Z,-5.00
2022-12-18T22:57:00.633Z,-4.96
2022-12-18T22:59:27.219Z,-4.96
2022-12-18T23:01:58.668Z,-4.91
2022-12-18T23:04:35.873Z,-4.76
2022-12-18T23:07:04.020Z,-4.86
2022-12-18T23:09:30.618Z,-4.88
2022-12-18T23:11:57.673Z,-4.82
2022-12-18T23:14:24.276Z,-4.75
2022-12-18T23:16:52.263Z,-4.86
2022-12-18T23:19:20.211Z,-4.83
2022-12-18T23:21:47.394Z,-4.73
2022-12-18T23:24:14.159Z,-4.64
2022-12-18T23:26:40.855Z,-4.76
2022-12-18T23:29:07.726Z,-4.71
2022-12-18T23:31:36.844Z,-4.70
2022-12-18T23:34:05.513Z,-4.52
2022-12-18T23:36:42.051Z,-4.49
2022-12-18T23:39:29.018Z,-4.60
2022-12-18T23:42:03.236Z,-4.54
2022-12-18T23:44:29.834Z,-4.59
2022-12-18T23:46:56.487Z,-4.51
2022-12-18T23:49:23.442Z,-4.44
2022-12-18T23:51:50.435Z,-4.54
2022-12-18T23:54:17.481Z,-4.57
2022-12-18T23:56:49.232Z,-4.61
2022-12-18T23:59:15.841Z,-4.51
